Time;durP1;ratioP1;P1;durP2;ratioP2;P2;SDS_P1;SDS_P2;PMS_P1;PMS_P2;Temp;Humidity;BMP_temperature;BMP_pressure;BME280_temperature;BME280_humidity;BME280_pressure;Samples;Min_cycle;Max_cycle;Signal;HPM_P1;HPM_P2
2022/04/30 00:02:13;;;;;;;;;;;;;;;;;;5020534;28;19923;-53
2022/04/30 00:04:40;;;;;;;;;;;;;;;;;;5020448;28;19917;-54
2022/04/30 00:07:06;;;;;;;;;;;;;;;;;;5017805;28;19928;-54
2022/04/30 00:09:32;;;;;;;;;;;;;;;;;;5024293;28;19925;-55
2022/04/30 00:11:58;;;;;;;;;;;;;;;;;;5017431;28;20353;-54
2022/04/30 00:14:24;;;;;;;;;;;;;;;;;;5022965;28;20011;-54
2022/04/30 00:16:50;;;;;;;;;;;;;;;;;;5023108;28;19944;-54
2022/04/30 00:19:15;;;;;;;;;;;;;;;;;;5028808;28;19928;-54
2022/04/30 00:21:41;;;;;;;;;;;;;;;;;;5025590;28;19936;-56
2022/04/30 00:24:06;;;;;;;;;;;;;;;;;;5023616;28;20404;-53
2022/04/30 00:26:31;;;;;;;;;;;;;;;;;;5026686;28;20108;-54
2022/04/30 00:28:57;;;;;;;;;;;;;;;;;;5028340;28;19921;-53
2022/04/30 00:31:22;;;;;;;;;;;;;;;;;;5024804;28;20304;-53
2022/04/30 00:33:48;;;;;;;;;;;;;;;;;;5027403;28;20279;-53
2022/04/30 00:36:16;;;;;;;;;;;;;;;;;;5020878;28;19925;-54
2022/04/30 00:38:42;;;;;;;;;;;;;;;;;;5023721;28;19924;-54
2022/04/30 00:41:08;;;;;;;;;;;;;;;;;;5025134;28;20375;-53
2022/04/30 00:43:45;;;;;;;;;;;;;;;;;;5023618;28;20264;-54
2022/04/30 00:46:11;;;;;;;;;;;;;;;;;;5027129;28;20405;-53
2022/04/30 00:48:37;;;;;;;;;;;;;;;;;;5026045;28;19947;-53
2022/04/30 00:51:02;;;;;;;;;;;;;;;;;;5024147;28;20446;-53
2022/04/30 00:53:28;;;;;;;;;;;;;;;;;;5022062;28;19917;-53
2022/04/30 00:55:55;;;;;;;;;;;;;;;;;;5021350;28;20353;-53
2022/04/30 00:58:20;;;;;;;;;;;;;;;;;;5024623;28;19920;-54
2022/04/30 01:00:46;;;;;;;;;;;;;;;;;;5022563;28;20303;-54
2022/04/30 01:03:12;;;;;;;;;;;;;;;;;;5022234;28;19917;-54
2022/04/30 01:05:37;;;;;;;;;;;;;;;;;;5017265;28;19917;-52
2022/04/30 01:08:02;;;;;;;;;;;;;;;;;;5016418;28;20454;-54
2022/04/30 01:10:28;;;;;;;;;;;;;;;;;;5023130;28;20016;-54
2022/04/30 01:12:53;;;;;;;;;;;;;;;;;;5028037;28;19971;-54
2022/04/30 01:15:19;;;;;;;;;;;;;;;;;;5018797;28;19961;-55
2022/04/30 01:17:45;;;;;;;;;;;;;;;;;;5025358;28;20381;-54
2022/04/30 01:20:10;;;;;;;;;;;;;;;;;;5026657;28;20160;-54
2022/04/30 01:22:39;;;;;;;;;;;;;;;;;;5028196;28;20397;-53
2022/04/30 01:25:04;;;;;;;;;;;;;;;;;;5023472;28;19995;-54
2022/04/30 01:27:30;;;;;;;;;;;;;;;;;;5029585;28;19918;-54
2022/04/30 01:29:56;;;;;;;;;;;;;;;;;;5032018;28;19931;-54
2022/04/30 01:38:02;;;;;;;;;;;;;;;;;;5027857;28;20037;-53
2022/04/30 01:40:29;;;;;;;;;;;;;;;;;;5025405;28;20296;-53
2022/04/30 01:42:58;;;;;;;;;;;;;;;;;;5018786;28;19917;-54
2022/04/30 01:45:24;;;;;;;;;;;;;;;;;;5021929;28;20387;-53
2022/04/30 01:47:49;;;;;;;;;;;;;;;;;;5029849;28;19964;-51
2022/04/30 01:50:15;;;;;;;;;;;;;;;;;;5028732;28;20684;-54
2022/04/30 01:52:40;;;;;;;;;;;;;;;;;;5018192;28;20340;-54
2022/04/30 01:55:06;;;;;;;;;;;;;;;;;;5021016;28;19925;-52
2022/04/30 01:57:32;;;;;;;;;;;;;;;;;;5017883;28;20008;-55
2022/04/30 01:59:58;;;;;;;;;;;;;;;;;;5026941;28;19923;-54
2022/04/30 02:02:24;;;;;;;;;;;;;;;;;;5018089;28;19925;-53
2022/04/30 02:04:54;;;;;;;;;;;;;;;;;;5016149;28;19921;-54
2022/04/30 02:07:20;;;;;;;;;;;;;;;;;;5018050;28;19976;-53
2022/04/30 02:09:45;;;;;;;;;;;;;;;;;;5024266;28;20204;-54
2022/04/30 02:12:10;;;;;;;;;;;;;;;;;;5015835;28;19917;-54
2022/04/30 02:14:39;;;;;;;;;;;;;;;;;;5016277;28;19921;-54
2022/04/30 02:17:06;;;;;;;;;;;;;;;;;;5028421;28;19987;-53
2022/04/30 02:20:18;;;;;;;;;;;;;;;;;;5026223;28;20477;-53
2022/04/30 02:22:21;;;;;;;;;;;;;;;;;;5022040;28;19963;-54
2022/04/30 02:24:46;;;;;;;;;;;;;;;;;;5021841;28;20412;-54
2022/04/30 02:27:12;;;;;;;;;;;;;;;;;;5026139;28;19917;-53
2022/04/30 02:29:38;;;;;;;;;;;;;;;;;;5027323;28;19917;-53
2022/04/30 02:32:03;;;;;;;;;;;;;;;;;;5023263;28;20036;-53
2022/04/30 02:34:28;;;;;;;;;;;;;;;;;;5023319;28;19921;-54
2022/04/30 02:36:53;;;;;;;;;;;;;;;;;;5025698;28;20452;-54
2022/04/30 02:39:19;;;;;;;;;;;;;;;;;;5019276;28;19963;-54
2022/04/30 02:41:44;;;;;;;;;;;;;;;;;;5019461;28;20386;-53
2022/04/30 02:44:09;;;;;;;;;;;;;;;;;;5022323;28;20581;-54
2022/04/30 02:46:35;;;;;;;;;;;;;;;;;;5021086;28;20016;-53
2022/04/30 02:49:00;;;;;;;;;;;;;;;;;;5020593;28;19928;-54
2022/04/30 02:51:25;;;;;;;;;;;;;;;;;;5018575;28;20000;-53
2022/04/30 02:53:53;;;;;;;;;;;;;;;;;;5024785;28;19928;-54
2022/04/30 02:56:19;;;;;;;;;;;;;;;;;;5025474;28;19963;-54
2022/04/30 03:01:28;;;;;;;;;;;;;;;;;;5019926;28;20238;-54
2022/04/30 03:03:54;;;;;;;;;;;;;;;;;;5020096;28;19921;-55
2022/04/30 03:06:19;;;;;;;;;;;;;;;;;;5023978;28;19917;-54
2022/04/30 03:08:46;;;;;;;;;;;;;;;;;;5024928;28;20673;-54
2022/04/30 03:11:12;;;;;;;;;;;;;;;;;;5018404;28;19917;-54
2022/04/30 03:13:37;;;;;;;;;;;;;;;;;;5025222;28;20430;-54
2022/04/30 03:21:42;;;;;;;;;;;;;;;;;;5026403;28;20318;-54
2022/04/30 03:24:08;;;;;;;;;;;;;;;;;;5027113;28;20268;-54
2022/04/30 03:26:33;;;;;;;;;;;;;;;;;;5028336;28;19933;-54
2022/04/30 03:28:58;;;;;;;;;;;;;;;;;;5025987;28;19921;-54
2022/04/30 03:31:24;;;;;;;;;;;;;;;;;;5023184;28;20412;-54
2022/04/30 03:33:50;;;;;;;;;;;;;;;;;;5026916;28;19971;-53
2022/04/30 03:36:18;;;;;;;;;;;;;;;;;;5025873;28;20012;-53
2022/04/30 03:38:44;;;;;;;;;;;;;;;;;;5024393;28;19918;-52
2022/04/30 03:41:09;;;;;;;;;;;;;;;;;;5023428;28;20413;-53
2022/04/30 03:43:34;;;;;;;;;;;;;;;;;;5026325;28;19917;-54
2022/04/30 03:46:00;;;;;;;;;;;;;;;;;;5026042;28;19917;-54
2022/04/30 03:48:25;;;;;;;;;;;;;;;;;;5023031;28;19917;-54
2022/04/30 03:50:52;;;;;;;;;;;;;;;;;;5022296;28;19917;-54
2022/04/30 03:53:17;;;;;;;;;;;;;;;;;;5021069;28;19956;-54
2022/04/30 03:55:43;;;;;;;;;;;;;;;;;;5027041;28;19967;-54
2022/04/30 03:58:08;;;;;;;;;;;;;;;;;;5021995;28;19917;-55
2022/04/30 04:00:34;;;;;;;;;;;;;;;;;;5018001;28;20320;-55
2022/04/30 04:02:59;;;;;;;;;;;;;;;;;;5017626;28;19917;-55
2022/04/30 04:05:26;;;;;;;;;;;;;;;;;;5017388;28;19913;-55
2022/04/30 04:07:51;;;;;;;;;;;;;;;;;;5013616;28;20290;-53
2022/04/30 04:10:16;;;;;;;;;;;;;;;;;;5029947;28;19917;-52
2022/04/30 04:12:42;;;;;;;;;;;;;;;;;;5027003;28;19918;-52
2022/04/30 04:17:52;;;;;;;;;;;;;;;;;;5024144;28;19947;-53
2022/04/30 04:20:18;;;;;;;;;;;;;;;;;;5025077;28;19917;-53
2022/04/30 04:22:44;;;;;;;;;;;;;;;;;;5028589;28;19927;-54
2022/04/30 04:27:57;;;;;;;;;;;;;;;;;;5024659;28;19924;-54
2022/04/30 04:30:24;;;;;;;;;;;;;;;;;;5024550;28;19921;-54
2022/04/30 04:32:49;;;;;;;;;;;;;;;;;;5023877;28;19927;-53
2022/04/30 04:35:15;;;;;;;;;;;;;;;;;;5027287;28;20233;-54
2022/04/30 04:37:41;;;;;;;;;;;;;;;;;;5022397;28;20323;-54
2022/04/30 04:40:08;;;;;;;;;;;;;;;;;;5021544;28;19936;-53
2022/04/30 04:42:33;;;;;;;;;;;;;;;;;;5021181;28;19950;-53
2022/04/30 04:44:58;;;;;;;;;;;;;;;;;;5027777;28;19921;-54
2022/04/30 04:47:23;;;;;;;;;;;;;;;;;;5021443;28;20167;-53
2022/04/30 04:49:49;;;;;;;;;;;;;;;;;;5026335;28;19964;-53
2022/04/30 04:52:14;;;;;;;;;;;;;;;;;;5025122;28;19917;-53
2022/04/30 04:54:40;;;;;;;;;;;;;;;;;;5022036;28;19917;-54
2022/04/30 04:57:05;;;;;;;;;;;;;;;;;;5014786;28;19924;-53
2022/04/30 04:59:30;;;;;;;;;;;;;;;;;;5023194;28;19917;-55
2022/04/30 05:01:56;;;;;;;;;;;;;;;;;;5025057;28;19921;-55
2022/04/30 05:04:21;;;;;;;;;;;;;;;;;;5020361;28;19917;-55
2022/04/30 05:06:48;;;;;;;;;;;;;;;;;;5021059;28;19917;-54
2022/04/30 05:09:14;;;;;;;;;;;;;;;;;;5023866;28;20458;-57
2022/04/30 05:11:39;;;;;;;;;;;;;;;;;;5016000;28;20073;-58
2022/04/30 05:14:04;;;;;;;;;;;;;;;;;;5028882;28;19952;-58
2022/04/30 05:16:30;;;;;;;;;;;;;;;;;;5022601;28;20399;-57
2022/04/30 05:18:55;;;;;;;;;;;;;;;;;;5025950;28;20275;-58
2022/04/30 05:21:20;;;;;;;;;;;;;;;;;;5018659;28;19948;-57
2022/04/30 05:23:46;;;;;;;;;;;;;;;;;;5030018;28;19971;-57
2022/04/30 05:26:11;;;;;;;;;;;;;;;;;;5026836;28;19916;-57
2022/04/30 05:28:36;;;;;;;;;;;;;;;;;;5024074;28;19928;-58
2022/04/30 05:31:04;;;;;;;;;;;;;;;;;;5026118;28;19917;-58
2022/04/30 05:33:32;;;;;;;;;;;;;;;;;;5024288;28;20141;-58
2022/04/30 05:35:58;;;;;;;;;;;;;;;;;;5023301;28;19917;-57
2022/04/30 05:38:23;;;;;;;;;;;;;;;;;;5021930;28;20027;-57
2022/04/30 05:40:48;;;;;;;;;;;;;;;;;;5023664;28;19921;-57
2022/04/30 05:43:13;;;;;;;;;;;;;;;;;;5024854;28;19917;-58
2022/04/30 05:45:39;;;;;;;;;;;;;;;;;;5020393;28;20404;-58
2022/04/30 05:48:04;;;;;;;;;;;;;;;;;;5020117;28;19924;-58
2022/04/30 05:50:29;;;;;;;;;;;;;;;;;;5021545;28;20565;-58
2022/04/30 05:52:55;;;;;;;;;;;;;;;;;;5019669;28;19963;-58
2022/04/30 05:55:20;;;;;;;;;;;;;;;;;;5025532;28;20374;-59
2022/04/30 05:57:45;;;;;;;;;;;;;;;;;;5025929;28;19921;-59
2022/04/30 06:00:11;;;;;;;;;;;;;;;;;;5020660;28;19983;-59
2022/04/30 06:02:36;;;;;;;;;;;;;;;;;;5013200;28;19913;-59
2022/04/30 06:05:02;;;;;;;;;;;;;;;;;;5016989;28;19917;-59
2022/04/30 06:07:27;;;;;;;;;;;;;;;;;;5020071;28;19916;-58
2022/04/30 06:09:52;;;;;;;;;;;;;;;;;;5015202;28;19935;-59
2022/04/30 06:12:19;;;;;;;;;;;;;;;;;;5022946;28;19917;-59
2022/04/30 06:14:45;;;;;;;;;;;;;;;;;;5028998;28;19975;-59
2022/04/30 06:17:10;;;;;;;;;;;;;;;;;;5022220;28;19921;-60
2022/04/30 06:19:36;;;;;;;;;;;;;;;;;;5022354;28;19917;-59
2022/04/30 06:22:01;;;;;;;;;;;;;;;;;;5029511;28;19988;-60
2022/04/30 06:24:26;;;;;;;;;;;;;;;;;;5027951;28;19917;-59
2022/04/30 06:26:52;;;;;;;;;;;;;;;;;;5028997;28;19917;-59
2022/04/30 06:29:18;;;;;;;;;;;;;;;;;;5027124;28;19921;-59
2022/04/30 06:31:43;;;;;;;;;;;;;;;;;;5022810;28;20289;-58
2022/04/30 06:34:09;;;;;;;;;;;;;;;;;;5022030;28;19921;-58
2022/04/30 06:36:34;;;;;;;;;;;;;;;;;;5027645;28;19917;-57
2022/04/30 06:38:59;;;;;;;;;;;;;;;;;;5033086;28;19962;-57
2022/04/30 06:41:25;;;;;;;;;;;;;;;;;;5027524;28;19944;-57
2022/04/30 06:43:51;;;;;;;;;;;;;;;;;;5032930;28;19995;-57
2022/04/30 06:46:16;;;;;;;;;;;;;;;;;;5026272;28;19944;-58
2022/04/30 06:48:42;;;;;;;;;;;;;;;;;;5025098;28;20359;-57
2022/04/30 06:51:07;;;;;;;;;;;;;;;;;;5026199;28;20325;-58
2022/04/30 06:59:01;;;;;;;;;;;;;;;;;;5025205;28;20016;-58
2022/04/30 07:04:11;;;;;;;;;;;;;;;;;;5019734;28;19917;-57
2022/04/30 07:06:36;;;;;;;;;;;;;;;;;;5019595;28;19925;-58
2022/04/30 07:09:03;;;;;;;;;;;;;;;;;;5027098;28;19925;-58
2022/04/30 07:11:28;;;;;;;;;;;;;;;;;;5027438;28;20280;-58
2022/04/30 07:13:54;;;;;;;;;;;;;;;;;;5031312;28;19943;-59
2022/04/30 07:16:19;;;;;;;;;;;;;;;;;;5026661;28;19975;-59
2022/04/30 07:18:44;;;;;;;;;;;;;;;;;;5032676;28;20015;-58
2022/04/30 07:21:10;;;;;;;;;;;;;;;;;;5022573;28;19917;-61
2022/04/30 07:23:35;;;;;;;;;;;;;;;;;;5028049;28;19921;-59
2022/04/30 07:26:00;;;;;;;;;;;;;;;;;;5025743;28;19917;-59
2022/04/30 07:28:30;;;;;;;;;;;;;;;;;;5027506;28;19940;-58
2022/04/30 07:30:55;;;;;;;;;;;;;;;;;;5024228;28;19920;-59
2022/04/30 07:33:21;;;;;;;;;;;;;;;;;;5022952;28;19917;-59
2022/04/30 07:35:46;;;;;;;;;;;;;;;;;;5030762;28;19917;-58
2022/04/30 07:38:11;;;;;;;;;;;;;;;;;;5026347;28;19927;-58
2022/04/30 07:40:38;;;;;;;;;;;;;;;;;;5028127;28;20034;-58
2022/04/30 07:43:03;;;;;;;;;;;;;;;;;;5025090;28;19944;-58
2022/04/30 07:45:28;;;;;;;;;;;;;;;;;;5025939;28;20394;-59
2022/04/30 07:47:55;;;;;;;;;;;;;;;;;;5021405;28;19940;-58
2022/04/30 07:50:21;;;;;;;;;;;;;;;;;;5022830;28;20270;-58
2022/04/30 07:52:47;;;;;;;;;;;;;;;;;;5023696;28;19928;-59
2022/04/30 07:55:13;;;;;;;;;;;;;;;;;;5018386;28;19941;-58
2022/04/30 07:57:38;;;;;;;;;;;;;;;;;;5022639;28;20225;-59
2022/04/30 08:00:04;;;;;;;;;;;;;;;;;;5020336;28;19927;-59
2022/04/30 08:02:29;;;;;;;;;;;;;;;;;;5028223;28;19979;-57
2022/04/30 08:04:55;;;;;;;;;;;;;;;;;;5021599;28;19952;-58
2022/04/30 08:07:21;;;;;;;;;;;;;;;;;;5024397;28;19917;-59
2022/04/30 08:09:46;;;;;;;;;;;;;;;;;;5027462;28;20386;-58
2022/04/30 08:12:12;;;;;;;;;;;;;;;;;;5024976;28;19973;-59
2022/04/30 08:14:37;;;;;;;;;;;;;;;;;;5023872;28;19976;-57
2022/04/30 08:17:03;;;;;;;;;;;;;;;;;;5024222;28;20295;-58
2022/04/30 08:19:28;;;;;;;;;;;;;;;;;;4960875;28;1976899;-58
2022/04/30 08:21:53;;;;;;;;;;;;;;;;;;5028547;28;19921;-58
2022/04/30 08:24:19;;;;;;;;;;;;;;;;;;5026399;28;20007;-57
2022/04/30 08:26:44;;;;;;;;;;;;;;;;;;5023329;28;20399;-57
2022/04/30 08:29:09;;;;;;;;;;;;;;;;;;5020017;28;20279;-57
2022/04/30 08:31:35;;;;;;;;;;;;;;;;;;5022247;28;20433;-57
2022/04/30 08:34:00;;;;;;;;;;;;;;;;;;5023354;28;20452;-59
2022/04/30 08:36:28;;;;;;;;;;;;;;;;;;5017803;28;20445;-57
2022/04/30 08:38:54;;;;;;;;;;;;;;;;;;5029963;28;20055;-60
2022/04/30 08:41:19;;;;;;;;;;;;;;;;;;5019179;28;20373;-59
2022/04/30 08:43:48;;;;;;;;;;;;;;;;;;5024727;28;19931;-59
2022/04/30 08:46:17;;;;;;;;;;;;;;;;;;5023104;28;19921;-61
2022/04/30 08:48:44;;;;;;;;;;;;;;;;;;5025123;28;19933;-59
2022/04/30 08:51:09;;;;;;;;;;;;;;;;;;5025430;28;19920;-58
2022/04/30 08:53:35;;;;;;;;;;;;;;;;;;5024744;28;19923;-60
2022/04/30 08:56:00;;;;;;;;;;;;;;;;;;5022800;28;19933;-59
2022/04/30 08:58:26;;;;;;;;;;;;;;;;;;5022103;28;19951;-59
2022/04/30 09:00:52;;;;;;;;;;;;;;;;;;5023427;28;19964;-59
2022/04/30 09:03:19;;;;;;;;;;;;;;;;;;5019523;28;19928;-59
2022/04/30 09:05:44;;;;;;;;;;;;;;;;;;5026388;28;20339;-59
2022/04/30 09:08:09;;;;;;;;;;;;;;;;;;5029716;28;19924;-59
2022/04/30 09:10:35;;;;;;;;;;;;;;;;;;5028605;28;19928;-60
2022/04/30 09:13:07;;;;;;;;;;;;;;;;;;5020370;28;19920;-60
2022/04/30 09:15:34;;;;;;;;;;;;;;;;;;5018804;28;19924;-60
2022/04/30 09:17:59;;;;;;;;;;;;;;;;;;5025982;28;19920;-60
2022/04/30 09:20:25;;;;;;;;;;;;;;;;;;5021833;28;20436;-60
2022/04/30 09:22:50;;;;;;;;;;;;;;;;;;5021360;28;19924;-59
2022/04/30 09:25:15;;;;;;;;;;;;;;;;;;5025497;28;19929;-59
2022/04/30 09:27:49;;;;;;;;;;;;;;;;;;5023985;28;20314;-60
2022/04/30 09:30:17;;;;;;;;;;;;;;;;;;5023829;28;19947;-60
2022/04/30 09:32:42;;;;;;;;;;;;;;;;;;5020129;28;19918;-60
2022/04/30 09:38:04;;;;;;;;;;;;;;;;;;5029557;28;20024;-59
2022/04/30 09:40:30;;;;;;;;;;;;;;;;;;5024947;28;20011;-60
2022/04/30 09:42:56;;;;;;;;;;;;;;;;;;5022760;28;19928;-59
2022/04/30 09:45:22;;;;;;;;;;;;;;;;;;5023597;28;19932;-60
2022/04/30 09:47:48;;;;;;;;;;;;;;;;;;5025217;28;20413;-60
2022/04/30 09:55:43;;;;;;;;;;;;;;;;;;5021229;28;19932;-59
2022/04/30 09:58:10;;;;;;;;;;;;;;;;;;5025758;28;20004;-58
2022/04/30 10:00:35;;;;;;;;;;;;;;;;;;5018629;28;19980;-58
2022/04/30 10:03:02;;;;;;;;;;;;;;;;;;5014041;28;19922;-59
2022/04/30 10:05:30;;;;;;;;;;;;;;;;;;5019219;28;19968;-58
2022/04/30 10:07:56;;;;;;;;;;;;;;;;;;5022633;28;19921;-58
2022/04/30 10:10:25;;;;;;;;;;;;;;;;;;5020447;28;20398;-57
2022/04/30 10:13:02;;;;;;;;;;;;;;;;;;5021465;28;19949;-58
2022/04/30 10:15:46;;;;;;;;;;;;;;;;;;5030870;28;20286;-58
2022/04/30 10:18:13;;;;;;;;;;;;;;;;;;5018945;28;19918;-59
2022/04/30 10:20:39;;;;;;;;;;;;;;;;;;5022412;28;19918;-57
2022/04/30 10:23:05;;;;;;;;;;;;;;;;;;5032468;28;19927;-58
2022/04/30 10:25:32;;;;;;;;;;;;;;;;;;5029158;28;19959;-58
2022/04/30 10:27:57;;;;;;;;;;;;;;;;;;5024614;28;19925;-60
2022/04/30 10:30:34;;;;;;;;;;;;;;;;;;5024320;28;19921;-58
2022/04/30 10:33:03;;;;;;;;;;;;;;;;;;5018198;28;19921;-58
2022/04/30 10:35:32;;;;;;;;;;;;;;;;;;5017019;28;20011;-58
2022/04/30 10:38:18;;;;;;;;;;;;;;;;;;5023976;28;20307;-58
2022/04/30 10:40:47;;;;;;;;;;;;;;;;;;5023375;28;19917;-58
2022/04/30 10:43:16;;;;;;;;;;;;;;;;;;5023131;28;20015;-58
2022/04/30 10:45:42;;;;;;;;;;;;;;;;;;5020094;28;20438;-58
2022/04/30 10:48:07;;;;;;;;;;;;;;;;;;5025156;28;19960;-58
2022/04/30 10:50:33;;;;;;;;;;;;;;;;;;5022994;28;19960;-58
2022/04/30 10:52:59;;;;;;;;;;;;;;;;;;5023155;28;19918;-57
2022/04/30 10:55:25;;;;;;;;;;;;;;;;;;5020709;28;19917;-58
2022/04/30 10:57:51;;;;;;;;;;;;;;;;;;5020560;28;19917;-57
2022/04/30 11:00:16;;;;;;;;;;;;;;;;;;5022962;28;20394;-57
2022/04/30 11:02:41;;;;;;;;;;;;;;;;;;5021361;28;19924;-57
2022/04/30 11:05:22;;;;;;;;;;;;;;;;;;5014296;28;19949;-57
2022/04/30 11:07:48;;;;;;;;;;;;;;;;;;5024055;28;19917;-57
2022/04/30 11:10:13;;;;;;;;;;;;;;;;;;5031438;28;20046;-57
2022/04/30 11:12:38;;;;;;;;;;;;;;;;;;5024183;28;19947;-57
2022/04/30 11:15:04;;;;;;;;;;;;;;;;;;5024541;28;19921;-57
2022/04/30 11:17:29;;;;;;;;;;;;;;;;;;5026894;28;19925;-57
2022/04/30 11:19:55;;;;;;;;;;;;;;;;;;5028249;28;19924;-57
2022/04/30 11:22:21;;;;;;;;;;;;;;;;;;5025510;28;20490;-57
2022/04/30 11:24:46;;;;;;;;;;;;;;;;;;5030164;28;19995;-57
2022/04/30 11:27:15;;;;;;;;;;;;;;;;;;5028580;28;20070;-57
2022/04/30 11:29:53;;;;;;;;;;;;;;;;;;5031555;28;19921;-58
2022/04/30 11:32:27;;;;;;;;;;;;;;;;;;5020940;28;20439;-57
2022/04/30 11:34:53;;;;;;;;;;;;;;;;;;5030273;28;19921;-57
2022/04/30 11:37:19;;;;;;;;;;;;;;;;;;5024161;28;20092;-57
2022/04/30 11:39:44;;;;;;;;;;;;;;;;;;5030387;28;20035;-57
2022/04/30 11:42:09;;;;;;;;;;;;;;;;;;5025254;28;20015;-57
2022/04/30 11:44:35;;;;;;;;;;;;;;;;;;5030730;28;19918;-57
2022/04/30 11:47:00;;;;;;;;;;;;;;;;;;5024028;28;20302;-56
2022/04/30 11:49:26;;;;;;;;;;;;;;;;;;5022713;28;19987;-54
2022/04/30 11:51:54;;;;;;;;;;;;;;;;;;5021818;28;20438;-58
2022/04/30 11:54:21;;;;;;;;;;;;;;;;;;5023189;28;20267;-60
2022/04/30 11:56:46;;;;;;;;;;;;;;;;;;5023502;28;19921;-60
2022/04/30 11:59:12;;;;;;;;;;;;;;;;;;5024943;28;19924;-59
2022/04/30 12:01:42;;;;;;;;;;;;;;;;;;5023084;28;20332;-59
2022/04/30 12:04:14;;;;;;;;;;;;;;;;;;5019235;28;19924;-59
2022/04/30 12:06:43;;;;;;;;;;;;;;;;;;5027410;28;20071;-59
2022/04/30 12:09:18;;;;;;;;;;;;;;;;;;5030214;28;19936;-58
2022/04/30 12:11:44;;;;;;;;;;;;;;;;;;5030594;28;19920;-61
2022/04/30 12:14:09;;;;;;;;;;;;;;;;;;5024627;28;19925;-60
2022/04/30 12:16:36;;;;;;;;;;;;;;;;;;5031740;28;19921;-58
2022/04/30 12:24:45;;;;;;;;;;;;;;;;;;5022193;28;19963;-60
2022/04/30 12:27:21;;;;;;;;;;;;;;;;;;5025257;28;19991;-60
2022/04/30 12:29:47;;;;;;;;;;;;;;;;;;5020207;28;20007;-60
2022/04/30 12:32:17;;;;;;;;;;;;;;;;;;5017466;28;20343;-58
2022/04/30 12:34:42;;;;;;;;;;;;;;;;;;5024796;28;19924;-61
2022/04/30 12:37:08;;;;;;;;;;;;;;;;;;5025557;28;20295;-59
2022/04/30 12:39:33;;;;;;;;;;;;;;;;;;5024024;28;20004;-60
2022/04/30 12:41:59;;;;;;;;;;;;;;;;;;5022312;28;19925;-59
2022/04/30 12:44:28;;;;;;;;;;;;;;;;;;5030183;28;19917;-60
2022/04/30 12:46:53;;;;;;;;;;;;;;;;;;5027316;28;19917;-61
2022/04/30 12:49:19;;;;;;;;;;;;;;;;;;5021385;28;20113;-58
2022/04/30 12:51:45;;;;;;;;;;;;;;;;;;5022337;28;20453;-60
2022/04/30 12:54:12;;;;;;;;;;;;;;;;;;5023072;28;19921;-58
2022/04/30 12:56:41;;;;;;;;;;;;;;;;;;5024423;28;20370;-58
2022/04/30 12:59:07;;;;;;;;;;;;;;;;;;5023969;28;19921;-61
2022/04/30 13:01:34;;;;;;;;;;;;;;;;;;5021903;28;19991;-61
2022/04/30 13:04:00;;;;;;;;;;;;;;;;;;5026557;28;20126;-61
2022/04/30 13:06:25;;;;;;;;;;;;;;;;;;5028076;28;20062;-59
2022/04/30 13:14:18;;;;;;;;;;;;;;;;;;5029955;28;19924;-60
2022/04/30 13:16:44;;;;;;;;;;;;;;;;;;5028577;28;19925;-59
2022/04/30 13:19:10;;;;;;;;;;;;;;;;;;5027206;28;19975;-59
2022/04/30 13:21:36;;;;;;;;;;;;;;;;;;5025084;28;19917;-58
2022/04/30 13:24:01;;;;;;;;;;;;;;;;;;5024907;28;20435;-59
2022/04/30 13:26:26;;;;;;;;;;;;;;;;;;5018691;28;19917;-59
2022/04/30 13:28:52;;;;;;;;;;;;;;;;;;5021265;28;20004;-60
2022/04/30 13:31:17;;;;;;;;;;;;;;;;;;5025284;28;20047;-59
2022/04/30 13:33:42;;;;;;;;;;;;;;;;;;5024576;28;19940;-59
2022/04/30 13:36:09;;;;;;;;;;;;;;;;;;5021790;28;19921;-58
2022/04/30 13:38:34;;;;;;;;;;;;;;;;;;5029742;28;19920;-58
2022/04/30 13:41:01;;;;;;;;;;;;;;;;;;5017829;28;20340;-59
2022/04/30 13:43:26;;;;;;;;;;;;;;;;;;5024738;28;19924;-58
2022/04/30 13:45:52;;;;;;;;;;;;;;;;;;5019638;28;19917;-58
2022/04/30 13:48:18;;;;;;;;;;;;;;;;;;5014720;28;19924;-58
2022/04/30 13:50:43;;;;;;;;;;;;;;;;;;5016853;28;20294;-58
2022/04/30 13:53:09;;;;;;;;;;;;;;;;;;5012682;28;19921;-58
2022/04/30 13:55:34;;;;;;;;;;;;;;;;;;5019868;28;19917;-58
2022/04/30 13:58:00;;;;;;;;;;;;;;;;;;5025323;28;20039;-58
2022/04/30 14:00:25;;;;;;;;;;;;;;;;;;5022636;28;20295;-58
2022/04/30 14:02:50;;;;;;;;;;;;;;;;;;5023006;28;19917;-58
2022/04/30 14:05:16;;;;;;;;;;;;;;;;;;5023249;28;19925;-58
2022/04/30 14:07:41;;;;;;;;;;;;;;;;;;5022818;28;19960;-58
2022/04/30 14:10:07;;;;;;;;;;;;;;;;;;5024903;28;19922;-59
2022/04/30 14:12:32;;;;;;;;;;;;;;;;;;5022208;28;19921;-58
2022/04/30 14:14:58;;;;;;;;;;;;;;;;;;5025470;28;20294;-58
2022/04/30 14:20:12;;;;;;;;;;;;;;;;;;5023832;28;19924;-58
2022/04/30 14:22:38;;;;;;;;;;;;;;;;;;5023575;28;20363;-60
2022/04/30 14:25:03;;;;;;;;;;;;;;;;;;5024197;28;20019;-59
2022/04/30 14:27:29;;;;;;;;;;;;;;;;;;5021483;28;20434;-59
2022/04/30 14:29:54;;;;;;;;;;;;;;;;;;5025431;28;20439;-59
2022/04/30 14:32:19;;;;;;;;;;;;;;;;;;5024748;28;20386;-58
2022/04/30 14:34:45;;;;;;;;;;;;;;;;;;5024516;28;19979;-58
2022/04/30 14:37:10;;;;;;;;;;;;;;;;;;5026191;28;20413;-59
2022/04/30 14:39:36;;;;;;;;;;;;;;;;;;5024698;28;20012;-59
2022/04/30 14:42:05;;;;;;;;;;;;;;;;;;5022379;28;19918;-58
2022/04/30 14:44:31;;;;;;;;;;;;;;;;;;5021748;28;20004;-58
2022/04/30 14:46:57;;;;;;;;;;;;;;;;;;5023476;28;20016;-57
2022/04/30 14:49:22;;;;;;;;;;;;;;;;;;5023760;28;20397;-59
2022/04/30 14:51:48;;;;;;;;;;;;;;;;;;5023848;28;19924;-59
2022/04/30 14:54:13;;;;;;;;;;;;;;;;;;5023672;28;19967;-59
2022/04/30 14:56:41;;;;;;;;;;;;;;;;;;5027649;28;19940;-60
2022/04/30 14:59:08;;;;;;;;;;;;;;;;;;5024297;28;20340;-59
2022/04/30 15:01:34;;;;;;;;;;;;;;;;;;5023322;28;19921;-59
2022/04/30 15:03:59;;;;;;;;;;;;;;;;;;5027486;28;20347;-59
2022/04/30 15:06:24;;;;;;;;;;;;;;;;;;5026787;28;19983;-58
2022/04/30 15:08:50;;;;;;;;;;;;;;;;;;5029421;28;19932;-59
2022/04/30 15:11:15;;;;;;;;;;;;;;;;;;5025139;28;19924;-58
2022/04/30 15:13:40;;;;;;;;;;;;;;;;;;5023754;28;19918;-58
2022/04/30 15:16:05;;;;;;;;;;;;;;;;;;5029588;28;19917;-59
2022/04/30 15:18:31;;;;;;;;;;;;;;;;;;5029465;28;19952;-58
2022/04/30 15:20:57;;;;;;;;;;;;;;;;;;5024719;28;19924;-58
2022/04/30 15:23:23;;;;;;;;;;;;;;;;;;5024570;28;19979;-58
2022/04/30 15:25:52;;;;;;;;;;;;;;;;;;5022502;28;20501;-58
2022/04/30 15:28:17;;;;;;;;;;;;;;;;;;5028896;28;19917;-58
2022/04/30 15:30:44;;;;;;;;;;;;;;;;;;5021412;28;19933;-58
2022/04/30 15:33:09;;;;;;;;;;;;;;;;;;5024676;28;19925;-58
2022/04/30 15:35:35;;;;;;;;;;;;;;;;;;5024992;28;19917;-58
2022/04/30 15:38:00;;;;;;;;;;;;;;;;;;5024826;28;19918;-58
2022/04/30 15:40:26;;;;;;;;;;;;;;;;;;5024509;28;19917;-58
2022/04/30 15:42:51;;;;;;;;;;;;;;;;;;5026467;28;20393;-58
2022/04/30 15:45:16;;;;;;;;;;;;;;;;;;5025157;28;20387;-58
2022/04/30 15:53:10;;;;;;;;;;;;;;;;;;5021117;28;19928;-59
2022/04/30 15:55:35;;;;;;;;;;;;;;;;;;5024669;28;20164;-59
2022/04/30 15:58:01;;;;;;;;;;;;;;;;;;5020401;28;19917;-59
2022/04/30 16:00:27;;;;;;;;;;;;;;;;;;5021484;28;20382;-58
2022/04/30 16:02:52;;;;;;;;;;;;;;;;;;5026106;28;19924;-58
2022/04/30 16:05:17;;;;;;;;;;;;;;;;;;5034076;28;19925;-58
2022/04/30 16:07:43;;;;;;;;;;;;;;;;;;5027530;28;20341;-58
2022/04/30 16:10:09;;;;;;;;;;;;;;;;;;5024621;28;19921;-58
2022/04/30 16:12:34;;;;;;;;;;;;;;;;;;5026636;28;20479;-54
2022/04/30 16:15:00;;;;;;;;;;;;;;;;;;5024728;28;20163;-52
2022/04/30 16:17:25;;;;;;;;;;;;;;;;;;5020716;28;19918;-54
2022/04/30 16:19:50;;;;;;;;;;;;;;;;;;5025538;28;20015;-52
2022/04/30 16:22:16;;;;;;;;;;;;;;;;;;5025509;28;20279;-56
2022/04/30 16:24:41;;;;;;;;;;;;;;;;;;5026962;28;20367;-58
2022/04/30 16:27:08;;;;;;;;;;;;;;;;;;5026328;28;19917;-58
2022/04/30 16:29:33;;;;;;;;;;;;;;;;;;5029685;28;19922;-58
2022/04/30 16:31:59;;;;;;;;;;;;;;;;;;5022318;28;19920;-59
2022/04/30 16:34:24;;;;;;;;;;;;;;;;;;5025221;28;19995;-58
2022/04/30 16:36:49;;;;;;;;;;;;;;;;;;5021531;28;19921;-59
2022/04/30 16:39:15;;;;;;;;;;;;;;;;;;5026167;28;20133;-59
2022/04/30 16:41:40;;;;;;;;;;;;;;;;;;5021536;28;20164;-59
2022/04/30 16:44:06;;;;;;;;;;;;;;;;;;5022464;28;19976;-59
2022/04/30 16:46:33;;;;;;;;;;;;;;;;;;5020306;28;19918;-59
2022/04/30 16:49:00;;;;;;;;;;;;;;;;;;5018801;28;20003;-59
2022/04/30 16:54:09;;;;;;;;;;;;;;;;;;5019719;28;19963;-59
2022/04/30 16:59:18;;;;;;;;;;;;;;;;;;5019316;28;20311;-58
2022/04/30 17:01:44;;;;;;;;;;;;;;;;;;5023336;28;19959;-58
2022/04/30 17:04:10;;;;;;;;;;;;;;;;;;5027893;28;19921;-59
2022/04/30 17:06:35;;;;;;;;;;;;;;;;;;5026318;28;19923;-59
2022/04/30 17:09:00;;;;;;;;;;;;;;;;;;5022129;28;20320;-58
2022/04/30 17:11:26;;;;;;;;;;;;;;;;;;5025617;28;19913;-58
2022/04/30 17:13:51;;;;;;;;;;;;;;;;;;5027244;28;19921;-58
2022/04/30 17:16:16;;;;;;;;;;;;;;;;;;5023955;28;19921;-59
2022/04/30 17:18:42;;;;;;;;;;;;;;;;;;5026609;28;19917;-59
2022/04/30 17:21:07;;;;;;;;;;;;;;;;;;5024976;28;19928;-58
2022/04/30 17:23:32;;;;;;;;;;;;;;;;;;5025294;28;20349;-58
2022/04/30 17:26:00;;;;;;;;;;;;;;;;;;5026709;28;19955;-59
2022/04/30 17:28:26;;;;;;;;;;;;;;;;;;5024401;28;19918;-60
2022/04/30 17:39:05;;;;;;;;;;;;;;;;;;5028183;28;19923;-59
2022/04/30 17:41:30;;;;;;;;;;;;;;;;;;5021981;28;20003;-59
2022/04/30 17:43:55;;;;;;;;;;;;;;;;;;5026413;28;20008;-59
2022/04/30 17:46:21;;;;;;;;;;;;;;;;;;5019213;28;20421;-58
2022/04/30 17:48:47;;;;;;;;;;;;;;;;;;5020735;28;19920;-59